Terminal Aerodrome Forecast
Issued by NWS

Home | Current Version | Previous Version | Text Only | Print | Product List | Glossary On
Versions: 1 2 3 4 5 6 7 8 9 10 11 12 13
982
FTUS45 KRIW 042337
TAFCOD
TAF
KCOD 042337Z 0500/0524 28011KT P6SM SCT060 BKN150 WS020/26045KT
     FM050400 33010KT P6SM VCSH SCT015 BKN050 OVC080
     FM050700 01012G18KT 3SM -SN BKN010 OVC020
     FM051300 30014G20KT 5SM -SN BKN020 OVC040
     FM051800 29012G18KT P6SM SCT040 BKN080
      AMD LTD TO CLD VIS AND WIND=

USA.gov is the U.S. government's official web portal to all federal, state and local government web resources and services.